sensor_id;sensor_type;location;lat;lon;timestamp;P1;durP1;ratioP1;P2;durP2;ratioP2
53925;SDS011;39836;52.754;6.866;2022-12-16T00:00:20;63.22;;;40.97;;
53925;SDS011;39836;52.754;6.866;2022-12-16T00:02:47;71.05;;;42.40;;
53925;SDS011;39836;52.754;6.866;2022-12-16T00:05:13;71.22;;;41.78;;
53925;SDS011;39836;52.754;6.866;2022-12-16T00:07:39;79.28;;;42.58;;
53925;SDS011;39836;52.754;6.866;2022-12-16T00:10:05;69.03;;;41.13;;
53925;SDS011;39836;52.754;6.866;2022-12-16T00:12:31;70.45;;;42.38;;
53925;SDS011;39836;52.754;6.866;2022-12-16T00:14:57;71.38;;;42.63;;
53925;SDS011;39836;52.754;6.866;2022-12-16T00:17:23;65.93;;;41.50;;
53925;SDS011;39836;52.754;6.866;2022-12-16T00:19:48;69.47;;;41.35;;
53925;SDS011;39836;52.754;6.866;2022-12-16T00:22:14;62.90;;;39.03;;
53925;SDS011;39836;52.754;6.866;2022-12-16T00:24:40;68.78;;;41.88;;
53925;SDS011;39836;52.754;6.866;2022-12-16T00:27:05;74.53;;;42.15;;
53925;SDS011;39836;52.754;6.866;2022-12-16T00:29:31;69.57;;;41.78;;
53925;SDS011;39836;52.754;6.866;2022-12-16T00:31:57;72.70;;;42.53;;
53925;SDS011;39836;52.754;6.866;2022-12-16T00:34:22;76.45;;;43.00;;
53925;SDS011;39836;52.754;6.866;2022-12-16T00:36:48;78.05;;;43.53;;
53925;SDS011;39836;52.754;6.866;2022-12-16T00:39:14;77.10;;;43.00;;
53925;SDS011;39836;52.754;6.866;2022-12-16T00:41:40;75.72;;;45.13;;
53925;SDS011;39836;52.754;6.866;2022-12-16T00:44:05;71.30;;;43.90;;
53925;SDS011;39836;52.754;6.866;2022-12-16T00:46:31;73.63;;;43.38;;
53925;SDS011;39836;52.754;6.866;2022-12-16T00:48:56;73.70;;;43.05;;
53925;SDS011;39836;52.754;6.866;2022-12-16T00:51:22;74.13;;;43.60;;
53925;SDS011;39836;52.754;6.866;2022-12-16T00:53:48;74.18;;;42.85;;
53925;SDS011;39836;52.754;6.866;2022-12-16T00:56:13;79.18;;;42.65;;
53925;SDS011;39836;52.754;6.866;2022-12-16T00:58:39;70.25;;;41.78;;
53925;SDS011;39836;52.754;6.866;2022-12-16T01:01:06;78.88;;;43.30;;
53925;SDS011;39836;52.754;6.866;2022-12-16T01:03:32;78.15;;;45.33;;
53925;SDS011;39836;52.754;6.866;2022-12-16T01:05:58;72.38;;;42.35;;
53925;SDS011;39836;52.754;6.866;2022-12-16T01:08:24;68.55;;;39.88;;
53925;SDS011;39836;52.754;6.866;2022-12-16T01:10:55;76.10;;;41.40;;
53925;SDS011;39836;52.754;6.866;2022-12-16T01:13:22;71.35;;;40.80;;
53925;SDS011;39836;52.754;6.866;2022-12-16T01:15:49;71.20;;;40.13;;
53925;SDS011;39836;52.754;6.866;2022-12-16T01:18:15;69.18;;;40.20;;
53925;SDS011;39836;52.754;6.866;2022-12-16T01:20:40;73.10;;;39.85;;
53925;SDS011;39836;52.754;6.866;2022-12-16T01:23:06;75.95;;;42.40;;
53925;SDS011;39836;52.754;6.866;2022-12-16T01:25:32;71.90;;;41.67;;
53925;SDS011;39836;52.754;6.866;2022-12-16T01:27:58;74.32;;;42.45;;
53925;SDS011;39836;52.754;6.866;2022-12-16T01:30:23;75.15;;;42.42;;
53925;SDS011;39836;52.754;6.866;2022-12-16T01:32:49;86.70;;;43.88;;
53925;SDS011;39836;52.754;6.866;2022-12-16T01:35:15;77.15;;;44.20;;
53925;SDS011;39836;52.754;6.866;2022-12-16T01:37:41;80.63;;;44.40;;
53925;SDS011;39836;52.754;6.866;2022-12-16T01:40:07;74.22;;;41.97;;
53925;SDS011;39836;52.754;6.866;2022-12-16T01:42:45;73.90;;;42.40;;
53925;SDS011;39836;52.754;6.866;2022-12-16T01:47:54;84.78;;;44.97;;
53925;SDS011;39836;52.754;6.866;2022-12-16T01:50:23;79.55;;;41.60;;
53925;SDS011;39836;52.754;6.866;2022-12-16T01:52:51;78.18;;;43.38;;
53925;SDS011;39836;52.754;6.866;2022-12-16T01:55:21;82.47;;;42.63;;
53925;SDS011;39836;52.754;6.866;2022-12-16T01:57:52;71.05;;;40.55;;
53925;SDS011;39836;52.754;6.866;2022-12-16T02:00:23;78.70;;;42.75;;
53925;SDS011;39836;52.754;6.866;2022-12-16T02:02:49;83.32;;;41.65;;
53925;SDS011;39836;52.754;6.866;2022-12-16T02:05:17;80.65;;;43.47;;
53925;SDS011;39836;52.754;6.866;2022-12-16T02:13:18;78.63;;;43.38;;
53925;SDS011;39836;52.754;6.866;2022-12-16T02:24:34;82.07;;;44.13;;
53925;SDS011;39836;52.754;6.866;2022-12-16T02:35:38;81.85;;;44.92;;
53925;SDS011;39836;52.754;6.866;2022-12-16T02:41:06;83.63;;;46.70;;
53925;SDS011;39836;52.754;6.866;2022-12-16T02:43:58;77.13;;;42.35;;
53925;SDS011;39836;52.754;6.866;2022-12-16T02:46:29;77.82;;;41.72;;
53925;SDS011;39836;52.754;6.866;2022-12-16T02:49:58;79.05;;;43.78;;
53925;SDS011;39836;52.754;6.866;2022-12-16T02:51:53;79.07;;;43.00;;
53925;SDS011;39836;52.754;6.866;2022-12-16T02:54:21;86.97;;;45.55;;
53925;SDS011;39836;52.754;6.866;2022-12-16T02:59:34;81.88;;;43.20;;
53925;SDS011;39836;52.754;6.866;2022-12-16T03:02:21;76.90;;;42.63;;
53925;SDS011;39836;52.754;6.866;2022-12-16T03:04:53;84.95;;;44.25;;
53925;SDS011;39836;52.754;6.866;2022-12-16T03:07:42;72.15;;;43.65;;
53925;SDS011;39836;52.754;6.866;2022-12-16T03:10:11;85.20;;;43.67;;
53925;SDS011;39836;52.754;6.866;2022-12-16T03:12:42;83.68;;;44.88;;
53925;SDS011;39836;52.754;6.866;2022-12-16T03:15:10;94.60;;;45.05;;
53925;SDS011;39836;52.754;6.866;2022-12-16T03:17:39;86.20;;;46.40;;
53925;SDS011;39836;52.754;6.866;2022-12-16T03:20:17;76.90;;;46.00;;
53925;SDS011;39836;52.754;6.866;2022-12-16T03:22:48;84.30;;;46.97;;
53925;SDS011;39836;52.754;6.866;2022-12-16T03:25:18;82.95;;;43.75;;
53925;SDS011;39836;52.754;6.866;2022-12-16T03:27:50;82.60;;;46.80;;
53925;SDS011;39836;52.754;6.866;2022-12-16T03:30:33;85.97;;;45.58;;
53925;SDS011;39836;52.754;6.866;2022-12-16T03:35:52;81.32;;;44.03;;
53925;SDS011;39836;52.754;6.866;2022-12-16T03:38:22;91.88;;;47.10;;
53925;SDS011;39836;52.754;6.866;2022-12-16T03:40:50;82.45;;;46.25;;
53925;SDS011;39836;52.754;6.866;2022-12-16T03:43:16;83.00;;;42.63;;
53925;SDS011;39836;52.754;6.866;2022-12-16T03:45:43;87.43;;;44.90;;
53925;SDS011;39836;52.754;6.866;2022-12-16T03:48:10;89.65;;;47.08;;
53925;SDS011;39836;52.754;6.866;2022-12-16T03:50:38;86.07;;;46.22;;
53925;SDS011;39836;52.754;6.866;2022-12-16T03:53:05;90.75;;;46.38;;
53925;SDS011;39836;52.754;6.866;2022-12-16T03:55:31;83.25;;;44.63;;
53925;SDS011;39836;52.754;6.866;2022-12-16T03:57:57;84.22;;;47.92;;
53925;SDS011;39836;52.754;6.866;2022-12-16T04:00:23;85.00;;;46.70;;
53925;SDS011;39836;52.754;6.866;2022-12-16T04:02:49;100.03;;;47.25;;
53925;SDS011;39836;52.754;6.866;2022-12-16T04:05:16;92.75;;;48.65;;
53925;SDS011;39836;52.754;6.866;2022-12-16T04:07:41;90.38;;;46.00;;
53925;SDS011;39836;52.754;6.866;2022-12-16T04:10:07;96.18;;;49.13;;
53925;SDS011;39836;52.754;6.866;2022-12-16T04:12:34;89.95;;;47.05;;
53925;SDS011;39836;52.754;6.866;2022-12-16T04:15:18;95.03;;;45.63;;
53925;SDS011;39836;52.754;6.866;2022-12-16T04:18:03;97.03;;;46.15;;
53925;SDS011;39836;52.754;6.866;2022-12-16T04:20:49;88.63;;;47.38;;
53925;SDS011;39836;52.754;6.866;2022-12-16T04:23:39;92.82;;;48.33;;
53925;SDS011;39836;52.754;6.866;2022-12-16T04:26:31;89.00;;;46.95;;
53925;SDS011;39836;52.754;6.866;2022-12-16T04:29:17;90.13;;;47.88;;
53925;SDS011;39836;52.754;6.866;2022-12-16T04:31:42;93.40;;;48.72;;
53925;SDS011;39836;52.754;6.866;2022-12-16T04:34:08;92.60;;;47.40;;
53925;SDS011;39836;52.754;6.866;2022-12-16T04:37:00;81.75;;;45.40;;
53925;SDS011;39836;52.754;6.866;2022-12-16T04:39:45;90.60;;;45.67;;
53925;SDS011;39836;52.754;6.866;2022-12-16T04:42:30;87.32;;;45.55;;
53925;SDS011;39836;52.754;6.866;2022-12-16T04:45:14;91.00;;;46.97;;
53925;SDS011;39836;52.754;6.866;2022-12-16T04:47:59;88.57;;;46.75;;
53925;SDS011;39836;52.754;6.866;2022-12-16T04:50:44;94.72;;;46.95;;
53925;SDS011;39836;52.754;6.866;2022-12-16T04:53:31;87.03;;;47.00;;
53925;SDS011;39836;52.754;6.866;2022-12-16T04:56:16;95.10;;;48.20;;
53925;SDS011;39836;52.754;6.866;2022-12-16T04:59:00;87.35;;;45.53;;
53925;SDS011;39836;52.754;6.866;2022-12-16T05:01:44;91.85;;;48.45;;
53925;SDS011;39836;52.754;6.866;2022-12-16T05:04:29;88.50;;;47.50;;
53925;SDS011;39836;52.754;6.866;2022-12-16T05:07:13;96.60;;;48.47;;
53925;SDS011;39836;52.754;6.866;2022-12-16T05:09:57;99.97;;;50.65;;
53925;SDS011;39836;52.754;6.866;2022-12-16T05:12:41;98.25;;;52.05;;
53925;SDS011;39836;52.754;6.866;2022-12-16T05:15:26;91.03;;;47.17;;
53925;SDS011;39836;52.754;6.866;2022-12-16T05:18:14;109.20;;;53.35;;
53925;SDS011;39836;52.754;6.866;2022-12-16T05:21:00;118.63;;;56.70;;
53925;SDS011;39836;52.754;6.866;2022-12-16T05:23:45;99.03;;;50.10;;
53925;SDS011;39836;52.754;6.866;2022-12-16T05:26:30;97.47;;;49.47;;
53925;SDS011;39836;52.754;6.866;2022-12-16T05:29:14;99.85;;;54.05;;
53925;SDS011;39836;52.754;6.866;2022-12-16T05:31:59;94.68;;;48.42;;
53925;SDS011;39836;52.754;6.866;2022-12-16T05:34:43;89.63;;;48.10;;
53925;SDS011;39836;52.754;6.866;2022-12-16T05:37:27;89.97;;;48.50;;
53925;SDS011;39836;52.754;6.866;2022-12-16T05:40:12;91.38;;;46.17;;
53925;SDS011;39836;52.754;6.866;2022-12-16T05:42:56;91.85;;;48.67;;
53925;SDS011;39836;52.754;6.866;2022-12-16T05:45:40;87.25;;;48.53;;
53925;SDS011;39836;52.754;6.866;2022-12-16T05:48:25;89.47;;;45.78;;
53925;SDS011;39836;52.754;6.866;2022-12-16T05:51:10;93.70;;;47.08;;
53925;SDS011;39836;52.754;6.866;2022-12-16T05:53:54;91.03;;;47.15;;
53925;SDS011;39836;52.754;6.866;2022-12-16T05:56:39;91.45;;;46.60;;
53925;SDS011;39836;52.754;6.866;2022-12-16T05:59:23;89.07;;;46.85;;
53925;SDS011;39836;52.754;6.866;2022-12-16T06:02:07;89.85;;;47.70;;
53925;SDS011;39836;52.754;6.866;2022-12-16T06:04:52;92.43;;;48.00;;
53925;SDS011;39836;52.754;6.866;2022-12-16T06:07:36;83.65;;;46.30;;
53925;SDS011;39836;52.754;6.866;2022-12-16T06:10:20;87.78;;;46.05;;
53925;SDS011;39836;52.754;6.866;2022-12-16T06:13:05;94.43;;;49.03;;
53925;SDS011;39836;52.754;6.866;2022-12-16T06:15:49;93.32;;;48.42;;
53925;SDS011;39836;52.754;6.866;2022-12-16T06:18:33;95.38;;;47.65;;
53925;SDS011;39836;52.754;6.866;2022-12-16T06:21:17;83.43;;;47.38;;
53925;SDS011;39836;52.754;6.866;2022-12-16T06:24:02;82.20;;;48.22;;
53925;SDS011;39836;52.754;6.866;2022-12-16T06:26:46;93.30;;;49.80;;
53925;SDS011;39836;52.754;6.866;2022-12-16T06:29:31;88.40;;;46.95;;
53925;SDS011;39836;52.754;6.866;2022-12-16T06:32:17;86.10;;;47.00;;
53925;SDS011;39836;52.754;6.866;2022-12-16T06:35:01;77.35;;;44.22;;
53925;SDS011;39836;52.754;6.866;2022-12-16T06:37:46;83.47;;;45.65;;
53925;SDS011;39836;52.754;6.866;2022-12-16T06:40:30;83.63;;;46.20;;
53925;SDS011;39836;52.754;6.866;2022-12-16T06:43:14;84.22;;;46.08;;
53925;SDS011;39836;52.754;6.866;2022-12-16T06:45:58;85.55;;;46.90;;
53925;SDS011;39836;52.754;6.866;2022-12-16T06:48:43;84.35;;;47.25;;
53925;SDS011;39836;52.754;6.866;2022-12-16T06:51:27;79.75;;;44.92;;
53925;SDS011;39836;52.754;6.866;2022-12-16T06:54:12;82.93;;;44.67;;
53925;SDS011;39836;52.754;6.866;2022-12-16T06:56:56;85.70;;;46.65;;
53925;SDS011;39836;52.754;6.866;2022-12-16T06:59:40;78.68;;;44.28;;
53925;SDS011;39836;52.754;6.866;2022-12-16T07:02:25;103.07;;;49.38;;
53925;SDS011;39836;52.754;6.866;2022-12-16T07:05:17;88.65;;;48.00;;
53925;SDS011;39836;52.754;6.866;2022-12-16T07:08:01;95.45;;;49.83;;
53925;SDS011;39836;52.754;6.866;2022-12-16T07:10:53;105.30;;;50.88;;
53925;SDS011;39836;52.754;6.866;2022-12-16T07:13:37;104.35;;;50.47;;
53925;SDS011;39836;52.754;6.866;2022-12-16T07:16:21;113.72;;;50.03;;
53925;SDS011;39836;52.754;6.866;2022-12-16T07:19:06;103.03;;;50.22;;
53925;SDS011;39836;52.754;6.866;2022-12-16T07:21:50;93.65;;;47.85;;
53925;SDS011;39836;52.754;6.866;2022-12-16T07:24:34;103.13;;;49.63;;
53925;SDS011;39836;52.754;6.866;2022-12-16T07:27:18;96.50;;;49.13;;
53925;SDS011;39836;52.754;6.866;2022-12-16T07:30:02;108.18;;;52.35;;
53925;SDS011;39836;52.754;6.866;2022-12-16T07:32:50;107.40;;;52.05;;
53925;SDS011;39836;52.754;6.866;2022-12-16T07:35:34;100.22;;;48.88;;
53925;SDS011;39836;52.754;6.866;2022-12-16T07:38:18;103.38;;;51.67;;
53925;SDS011;39836;52.754;6.866;2022-12-16T07:41:03;105.82;;;50.63;;
53925;SDS011;39836;52.754;6.866;2022-12-16T07:43:47;107.03;;;50.92;;
53925;SDS011;39836;52.754;6.866;2022-12-16T07:46:31;115.00;;;50.25;;
53925;SDS011;39836;52.754;6.866;2022-12-16T07:49:16;94.88;;;47.75;;
53925;SDS011;39836;52.754;6.866;2022-12-16T07:52:00;104.22;;;50.35;;
53925;SDS011;39836;52.754;6.866;2022-12-16T07:54:44;106.15;;;50.60;;
53925;SDS011;39836;52.754;6.866;2022-12-16T07:57:28;107.57;;;51.92;;
53925;SDS011;39836;52.754;6.866;2022-12-16T08:00:13;104.38;;;49.38;;
53925;SDS011;39836;52.754;6.866;2022-12-16T08:02:57;110.45;;;52.10;;
53925;SDS011;39836;52.754;6.866;2022-12-16T08:05:41;103.43;;;51.90;;
53925;SDS011;39836;52.754;6.866;2022-12-16T08:08:26;108.90;;;53.05;;
53925;SDS011;39836;52.754;6.866;2022-12-16T08:11:10;98.30;;;48.33;;
53925;SDS011;39836;52.754;6.866;2022-12-16T08:13:54;108.05;;;51.03;;
53925;SDS011;39836;52.754;6.866;2022-12-16T08:16:38;100.13;;;50.67;;
53925;SDS011;39836;52.754;6.866;2022-12-16T08:19:23;102.20;;;49.45;;
53925;SDS011;39836;52.754;6.866;2022-12-16T08:22:07;94.25;;;48.72;;
53925;SDS011;39836;52.754;6.866;2022-12-16T08:24:52;108.18;;;49.20;;
53925;SDS011;39836;52.754;6.866;2022-12-16T08:27:36;102.32;;;50.08;;
53925;SDS011;39836;52.754;6.866;2022-12-16T08:30:20;106.00;;;50.67;;
53925;SDS011;39836;52.754;6.866;2022-12-16T08:33:05;106.65;;;49.30;;
53925;SDS011;39836;52.754;6.866;2022-12-16T08:35:49;105.93;;;51.53;;
53925;SDS011;39836;52.754;6.866;2022-12-16T08:38:33;102.00;;;49.13;;
53925;SDS011;39836;52.754;6.866;2022-12-16T08:41:18;114.32;;;51.28;;
53925;SDS011;39836;52.754;6.866;2022-12-16T08:44:03;106.15;;;51.40;;
53925;SDS011;39836;52.754;6.866;2022-12-16T08:46:47;108.88;;;50.55;;
53925;SDS011;39836;52.754;6.866;2022-12-16T08:49:32;114.35;;;50.45;;
53925;SDS011;39836;52.754;6.866;2022-12-16T08:52:16;108.28;;;50.10;;
53925;SDS011;39836;52.754;6.866;2022-12-16T08:55:01;107.32;;;48.40;;
53925;SDS011;39836;52.754;6.866;2022-12-16T08:57:51;112.50;;;47.78;;
53925;SDS011;39836;52.754;6.866;2022-12-16T09:00:38;103.13;;;48.05;;
53925;SDS011;39836;52.754;6.866;2022-12-16T09:03:23;94.97;;;49.20;;
53925;SDS011;39836;52.754;6.866;2022-12-16T09:06:07;101.10;;;49.13;;
53925;SDS011;39836;52.754;6.866;2022-12-16T09:08:51;102.88;;;48.42;;
53925;SDS011;39836;52.754;6.866;2022-12-16T09:11:36;108.75;;;48.88;;
53925;SDS011;39836;52.754;6.866;2022-12-16T09:14:20;105.22;;;49.00;;
53925;SDS011;39836;52.754;6.866;2022-12-16T09:17:04;101.38;;;47.75;;
53925;SDS011;39836;52.754;6.866;2022-12-16T09:19:48;112.97;;;50.35;;
53925;SDS011;39836;52.754;6.866;2022-12-16T09:22:32;98.18;;;49.53;;
53925;SDS011;39836;52.754;6.866;2022-12-16T09:25:17;104.18;;;49.05;;
53925;SDS011;39836;52.754;6.866;2022-12-16T09:28:01;106.45;;;49.20;;
53925;SDS011;39836;52.754;6.866;2022-12-16T09:30:45;101.22;;;49.33;;
53925;SDS011;39836;52.754;6.866;2022-12-16T09:33:29;111.15;;;48.55;;
53925;SDS011;39836;52.754;6.866;2022-12-16T09:36:13;113.00;;;50.70;;
53925;SDS011;39836;52.754;6.866;2022-12-16T09:38:58;110.93;;;52.40;;
53925;SDS011;39836;52.754;6.866;2022-12-16T09:41:43;102.45;;;49.50;;
53925;SDS011;39836;52.754;6.866;2022-12-16T09:44:39;118.53;;;52.25;;
53925;SDS011;39836;52.754;6.866;2022-12-16T09:47:56;117.13;;;52.20;;
53925;SDS011;39836;52.754;6.866;2022-12-16T09:50:53;119.68;;;50.92;;
53925;SDS011;39836;52.754;6.866;2022-12-16T09:53:41;111.60;;;49.00;;
53925;SDS011;39836;52.754;6.866;2022-12-16T09:56:28;131.97;;;52.10;;
53925;SDS011;39836;52.754;6.866;2022-12-16T09:59:15;116.68;;;46.55;;
53925;SDS011;39836;52.754;6.866;2022-12-16T10:02:09;109.68;;;50.90;;
53925;SDS011;39836;52.754;6.866;2022-12-16T10:04:54;115.85;;;51.53;;
53925;SDS011;39836;52.754;6.866;2022-12-16T10:07:39;109.35;;;48.20;;
53925;SDS011;39836;52.754;6.866;2022-12-16T10:13:36;116.80;;;53.08;;
53925;SDS011;39836;52.754;6.866;2022-12-16T10:16:28;129.60;;;54.15;;
53925;SDS011;39836;52.754;6.866;2022-12-16T10:22:17;125.70;;;52.28;;
53925;SDS011;39836;52.754;6.866;2022-12-16T10:25:17;122.03;;;48.50;;
53925;SDS011;39836;52.754;6.866;2022-12-16T10:31:14;121.07;;;50.78;;
53925;SDS011;39836;52.754;6.866;2022-12-16T10:33:59;121.22;;;49.70;;
53925;SDS011;39836;52.754;6.866;2022-12-16T10:36:45;120.38;;;52.53;;
53925;SDS011;39836;52.754;6.866;2022-12-16T10:39:34;123.07;;;51.17;;
53925;SDS011;39836;52.754;6.866;2022-12-16T10:42:23;127.22;;;54.13;;
53925;SDS011;39836;52.754;6.866;2022-12-16T10:48:20;115.60;;;48.33;;
53925;SDS011;39836;52.754;6.866;2022-12-16T10:51:11;126.07;;;48.70;;
53925;SDS011;39836;52.754;6.866;2022-12-16T10:54:00;112.13;;;49.33;;
53925;SDS011;39836;52.754;6.866;2022-12-16T11:00:38;117.97;;;50.87;;
53925;SDS011;39836;52.754;6.866;2022-12-16T11:03:29;126.38;;;50.65;;
53925;SDS011;39836;52.754;6.866;2022-12-16T11:06:24;117.18;;;51.55;;
53925;SDS011;39836;52.754;6.866;2022-12-16T11:15:30;126.30;;;50.88;;
53925;SDS011;39836;52.754;6.866;2022-12-16T11:26:56;116.45;;;50.72;;
53925;SDS011;39836;52.754;6.866;2022-12-16T11:29:49;110.20;;;49.72;;
53925;SDS011;39836;52.754;6.866;2022-12-16T11:32:50;130.52;;;51.33;;
53925;SDS011;39836;52.754;6.866;2022-12-16T11:35:38;132.18;;;51.70;;
53925;SDS011;39836;52.754;6.866;2022-12-16T11:38:26;107.25;;;48.70;;
53925;SDS011;39836;52.754;6.866;2022-12-16T11:41:27;121.68;;;50.92;;
53925;SDS011;39836;52.754;6.866;2022-12-16T11:44:30;114.03;;;51.00;;
53925;SDS011;39836;52.754;6.866;2022-12-16T11:47:38;115.47;;;50.20;;
53925;SDS011;39836;52.754;6.866;2022-12-16T11:50:23;111.07;;;49.53;;
53925;SDS011;39836;52.754;6.866;2022-12-16T11:56:16;127.55;;;50.55;;
53925;SDS011;39836;52.754;6.866;2022-12-16T11:59:09;122.93;;;53.42;;
53925;SDS011;39836;52.754;6.866;2022-12-16T12:02:02;131.23;;;54.45;;
53925;SDS011;39836;52.754;6.866;2022-12-16T12:04:54;123.13;;;51.80;;
53925;SDS011;39836;52.754;6.866;2022-12-16T12:07:43;122.10;;;49.60;;
53925;SDS011;39836;52.754;6.866;2022-12-16T12:13:40;126.38;;;53.03;;
53925;SDS011;39836;52.754;6.866;2022-12-16T12:16:39;104.07;;;48.50;;
53925;SDS011;39836;52.754;6.866;2022-12-16T12:19:32;116.80;;;50.75;;
53925;SDS011;39836;52.754;6.866;2022-12-16T12:22:36;115.57;;;49.38;;
53925;SDS011;39836;52.754;6.866;2022-12-16T12:25:27;110.85;;;49.28;;
53925;SDS011;39836;52.754;6.866;2022-12-16T12:28:31;116.38;;;50.65;;
53925;SDS011;39836;52.754;6.866;2022-12-16T12:40:25;124.38;;;52.28;;
53925;SDS011;39836;52.754;6.866;2022-12-16T12:46:38;132.10;;;53.53;;
53925;SDS011;39836;52.754;6.866;2022-12-16T12:50:03;119.78;;;50.90;;
53925;SDS011;39836;52.754;6.866;2022-12-16T12:52:54;131.00;;;55.13;;
53925;SDS011;39836;52.754;6.866;2022-12-16T12:59:11;128.90;;;52.95;;
53925;SDS011;39836;52.754;6.866;2022-12-16T13:02:00;137.55;;;53.92;;
53925;SDS011;39836;52.754;6.866;2022-12-16T13:04:48;129.43;;;54.33;;
53925;SDS011;39836;52.754;6.866;2022-12-16T13:07:34;140.32;;;54.33;;
53925;SDS011;39836;52.754;6.866;2022-12-16T13:16:10;157.07;;;55.47;;
53925;SDS011;39836;52.754;6.866;2022-12-16T13:21:59;143.48;;;52.78;;
53925;SDS011;39836;52.754;6.866;2022-12-16T13:24:54;161.45;;;54.42;;
53925;SDS011;39836;52.754;6.866;2022-12-16T13:27:45;153.82;;;56.35;;
53925;SDS011;39836;52.754;6.866;2022-12-16T13:30:34;156.75;;;55.13;;
53925;SDS011;39836;52.754;6.866;2022-12-16T13:33:28;168.52;;;57.92;;
53925;SDS011;39836;52.754;6.866;2022-12-16T13:36:14;155.98;;;58.58;;
53925;SDS011;39836;52.754;6.866;2022-12-16T13:45:33;156.38;;;54.72;;
53925;SDS011;39836;52.754;6.866;2022-12-16T13:48:29;171.13;;;59.50;;
53925;SDS011;39836;52.754;6.866;2022-12-16T13:54:19;162.77;;;56.85;;
53925;SDS011;39836;52.754;6.866;2022-12-16T13:57:21;169.82;;;60.08;;
53925;SDS011;39836;52.754;6.866;2022-12-16T14:00:17;166.55;;;60.15;;
53925;SDS011;39836;52.754;6.866;2022-12-16T14:03:10;176.35;;;57.80;;
53925;SDS011;39836;52.754;6.866;2022-12-16T14:06:03;155.90;;;59.03;;
53925;SDS011;39836;52.754;6.866;2022-12-16T14:08:51;146.63;;;53.92;;
53925;SDS011;39836;52.754;6.866;2022-12-16T14:11:46;145.70;;;52.72;;
53925;SDS011;39836;52.754;6.866;2022-12-16T14:14:56;167.10;;;58.58;;
53925;SDS011;39836;52.754;6.866;2022-12-16T14:17:56;163.93;;;55.50;;
53925;SDS011;39836;52.754;6.866;2022-12-16T14:20:53;159.02;;;58.53;;
53925;SDS011;39836;52.754;6.866;2022-12-16T14:23:52;167.43;;;56.03;;
53925;SDS011;39836;52.754;6.866;2022-12-16T14:26:42;158.68;;;59.28;;
53925;SDS011;39836;52.754;6.866;2022-12-16T14:29:27;150.60;;;57.20;;
53925;SDS011;39836;52.754;6.866;2022-12-16T14:35:06;167.63;;;57.35;;
53925;SDS011;39836;52.754;6.866;2022-12-16T14:37:57;163.48;;;58.15;;
53925;SDS011;39836;52.754;6.866;2022-12-16T14:40:55;166.38;;;59.65;;
53925;SDS011;39836;52.754;6.866;2022-12-16T14:43:41;164.90;;;57.25;;
53925;SDS011;39836;52.754;6.866;2022-12-16T14:49:21;161.00;;;58.72;;
53925;SDS011;39836;52.754;6.866;2022-12-16T14:55:11;170.77;;;59.13;;
53925;SDS011;39836;52.754;6.866;2022-12-16T14:58:05;163.55;;;56.33;;
53925;SDS011;39836;52.754;6.866;2022-12-16T15:00:59;151.30;;;56.67;;
53925;SDS011;39836;52.754;6.866;2022-12-16T15:06:40;146.52;;;56.05;;
53925;SDS011;39836;52.754;6.866;2022-12-16T15:09:28;172.48;;;57.92;;
53925;SDS011;39836;52.754;6.866;2022-12-16T15:12:17;164.55;;;56.85;;
53925;SDS011;39836;52.754;6.866;2022-12-16T15:15:07;177.45;;;58.15;;
53925;SDS011;39836;52.754;6.866;2022-12-16T15:17:57;166.52;;;58.58;;
53925;SDS011;39836;52.754;6.866;2022-12-16T15:20:50;164.90;;;58.85;;
53925;SDS011;39836;52.754;6.866;2022-12-16T15:23:41;189.70;;;64.10;;
53925;SDS011;39836;52.754;6.866;2022-12-16T15:26:28;192.10;;;60.05;;
53925;SDS011;39836;52.754;6.866;2022-12-16T15:35:10;202.05;;;60.17;;
53925;SDS011;39836;52.754;6.866;2022-12-16T15:40:58;189.65;;;62.40;;
53925;SDS011;39836;52.754;6.866;2022-12-16T15:43:46;210.52;;;64.82;;
53925;SDS011;39836;52.754;6.866;2022-12-16T15:46:31;220.40;;;67.35;;
53925;SDS011;39836;52.754;6.866;2022-12-16T15:49:37;208.18;;;67.20;;
53925;SDS011;39836;52.754;6.866;2022-12-16T15:52:27;246.07;;;71.03;;
53925;SDS011;39836;52.754;6.866;2022-12-16T15:58:14;237.82;;;71.10;;
53925;SDS011;39836;52.754;6.866;2022-12-16T16:01:04;269.50;;;79.88;;
53925;SDS011;39836;52.754;6.866;2022-12-16T16:03:50;262.60;;;71.73;;
53925;SDS011;39836;52.754;6.866;2022-12-16T16:06:36;258.85;;;73.85;;
53925;SDS011;39836;52.754;6.866;2022-12-16T16:09:25;255.25;;;73.75;;
53925;SDS011;39836;52.754;6.866;2022-12-16T16:12:14;213.60;;;64.85;;
53925;SDS011;39836;52.754;6.866;2022-12-16T16:15:01;229.35;;;71.38;;
53925;SDS011;39836;52.754;6.866;2022-12-16T16:17:48;244.30;;;70.10;;
53925;SDS011;39836;52.754;6.866;2022-12-16T16:20:38;243.93;;;67.55;;
53925;SDS011;39836;52.754;6.866;2022-12-16T16:23:22;213.90;;;67.03;;
53925;SDS011;39836;52.754;6.866;2022-12-16T16:26:08;223.20;;;66.72;;
53925;SDS011;39836;52.754;6.866;2022-12-16T16:28:54;239.23;;;72.20;;
53925;SDS011;39836;52.754;6.866;2022-12-16T16:31:38;230.10;;;67.75;;
53925;SDS011;39836;52.754;6.866;2022-12-16T16:34:22;254.43;;;70.05;;
53925;SDS011;39836;52.754;6.866;2022-12-16T16:37:07;231.90;;;69.07;;
53925;SDS011;39836;52.754;6.866;2022-12-16T16:39:56;253.55;;;71.78;;
53925;SDS011;39836;52.754;6.866;2022-12-16T16:42:41;243.70;;;71.95;;
53925;SDS011;39836;52.754;6.866;2022-12-16T16:45:25;145.50;;;46.47;;
53925;SDS011;39836;52.754;6.866;2022-12-16T16:48:10;137.13;;;45.08;;
53925;SDS011;39836;52.754;6.866;2022-12-16T16:51:01;169.07;;;54.58;;
53925;SDS011;39836;52.754;6.866;2022-12-16T16:53:46;184.85;;;55.95;;
53925;SDS011;39836;52.754;6.866;2022-12-16T16:56:32;184.02;;;58.92;;
53925;SDS011;39836;52.754;6.866;2022-12-16T16:59:20;198.10;;;58.38;;
53925;SDS011;39836;52.754;6.866;2022-12-16T17:02:19;235.43;;;67.60;;
53925;SDS011;39836;52.754;6.866;2022-12-16T17:05:05;213.13;;;61.75;;
53925;SDS011;39836;52.754;6.866;2022-12-16T17:07:49;200.65;;;60.67;;
53925;SDS011;39836;52.754;6.866;2022-12-16T17:10:34;236.10;;;65.68;;
53925;SDS011;39836;52.754;6.866;2022-12-16T17:13:19;236.80;;;69.13;;
53925;SDS011;39836;52.754;6.866;2022-12-16T17:16:03;226.70;;;66.05;;
53925;SDS011;39836;52.754;6.866;2022-12-16T17:18:48;243.68;;;69.95;;
53925;SDS011;39836;52.754;6.866;2022-12-16T17:21:31;250.07;;;67.72;;
53925;SDS011;39836;52.754;6.866;2022-12-16T17:24:15;224.75;;;64.25;;
53925;SDS011;39836;52.754;6.866;2022-12-16T17:27:33;208.57;;;61.67;;
53925;SDS011;39836;52.754;6.866;2022-12-16T17:30:15;201.40;;;56.60;;
53925;SDS011;39836;52.754;6.866;2022-12-16T17:33:01;186.25;;;58.83;;
53925;SDS011;39836;52.754;6.866;2022-12-16T17:35:47;198.55;;;59.47;;
53925;SDS011;39836;52.754;6.866;2022-12-16T17:38:33;198.18;;;56.05;;
53925;SDS011;39836;52.754;6.866;2022-12-16T17:41:21;182.48;;;58.25;;
53925;SDS011;39836;52.754;6.866;2022-12-16T17:44:06;194.50;;;58.60;;
53925;SDS011;39836;52.754;6.866;2022-12-16T17:46:50;203.13;;;56.92;;
53925;SDS011;39836;52.754;6.866;2022-12-16T17:49:34;181.38;;;58.10;;
53925;SDS011;39836;52.754;6.866;2022-12-16T17:52:18;189.60;;;57.10;;